Axtel, Kentucky
Current Conditions -  °F | °C
As of 9:58 AM on Sunday 23 Nov 2014 (Local Time) from KFTK Reporting Station
Overcast Overcast  
Wind Chill: 14°   Ceiling: 3700
Heat Index: 14°   Visibility: 10mi
Dew Point:   Wind: 13mph
Humidity: 75%   Direction: 100°E
Pressure: 29.82"   Gusts: NA
Location:  37.7834°N, 86.4612°W
Report Text: KFTK 231558Z AUTO 10011KT 10SM OVC037 14/09 A2982 RMK AO2 RAE1508 SLP100 P0001 T01360092
Loading
Personal Weather Stations






























Interactive Weather Map New forecast layout! Learn more

10-Day Weather Forecast

Advertisements
Track Severe Weather on mobile